Time;durP1;ratioP1;P1;durP2;ratioP2;P2;SDS_P1;SDS_P2;PMS_P1;PMS_P2;Temp;Humidity;BMP_temperature;BMP_pressure;BME280_temperature;BME280_humidity;BME280_pressure;Samples;Min_cycle;Max_cycle;Signal;HPM_P1;HPM_P2
2021/03/03 00:00:17;;;;;;;5.75;3.42;;;6.70;53.00;;;;;;5060247;28;20033;-72
2021/03/03 00:02:42;;;;;;;5.82;3.47;;;6.70;52.70;;;;;;5059807;28;20032;-72
2021/03/03 00:05:09;;;;;;;5.05;3.65;;;6.60;52.90;;;;;;5060043;28;20317;-72
2021/03/03 00:07:35;;;;;;;5.43;3.50;;;6.70;53.10;;;;;;5059975;28;20103;-72
2021/03/03 00:10:02;;;;;;;5.85;3.80;;;6.70;53.20;;;;;;5059775;28;20439;-72
2021/03/03 00:12:29;;;;;;;5.65;3.45;;;6.70;53.80;;;;;;5059613;28;20329;-72
2021/03/03 00:14:54;;;;;;;6.05;3.80;;;6.70;54.30;;;;;;5060004;28;20025;-72
2021/03/03 00:17:20;;;;;;;5.15;3.50;;;6.70;53.80;;;;;;5059625;28;20475;-72
2021/03/03 00:19:46;;;;;;;6.03;4.10;;;6.60;54.00;;;;;;5059481;28;20076;-72
2021/03/03 00:22:11;;;;;;;5.80;4.05;;;6.70;54.70;;;;;;5059240;28;20025;-72
2021/03/03 00:24:37;;;;;;;7.00;4.65;;;6.70;54.80;;;;;;5059664;28;20317;-72
2021/03/03 00:27:03;;;;;;;8.52;5.25;;;6.70;55.20;;;;;;5059777;28;20029;-72
2021/03/03 00:29:29;;;;;;;8.60;5.00;;;6.60;55.80;;;;;;5059430;28;20113;-72
2021/03/03 00:31:54;;;;;;;8.48;4.97;;;6.60;56.20;;;;;;5059415;28;20135;-72
2021/03/03 00:34:20;;;;;;;9.40;5.43;;;6.60;55.70;;;;;;5059210;28;20435;-72
2021/03/03 00:36:46;;;;;;;11.07;5.20;;;6.70;55.00;;;;;;5059386;28;20021;-72
2021/03/03 00:39:12;;;;;;;8.52;5.65;;;6.70;55.40;;;;;;5059167;28;20025;-72
2021/03/03 00:41:37;;;;;;;8.88;5.97;;;6.80;55.80;;;;;;5059186;28;20057;-72
2021/03/03 00:44:03;;;;;;;8.85;5.78;;;6.90;56.00;;;;;;5059192;28;20028;-72
2021/03/03 00:46:29;;;;;;;7.80;5.07;;;7.00;57.00;;;;;;5059519;28;20123;-72
2021/03/03 00:48:54;;;;;;;9.05;5.72;;;7.00;58.20;;;;;;5059336;28;20029;-72
2021/03/03 00:51:20;;;;;;;9.35;6.00;;;6.90;58.30;;;;;;5058970;28;20029;-72
2021/03/03 00:53:46;;;;;;;8.05;5.40;;;6.90;58.70;;;;;;5058858;28;20025;-72
2021/03/03 00:56:12;;;;;;;12.73;5.68;;;6.80;57.20;;;;;;5058951;28;20039;-72
2021/03/03 00:58:38;;;;;;;9.35;5.90;;;6.70;58.40;;;;;;5059125;28;20112;-72
2021/03/03 01:01:04;;;;;;;12.25;5.88;;;6.70;59.10;;;;;;5059067;28;20025;-72
2021/03/03 01:03:29;;;;;;;7.18;5.07;;;6.80;59.00;;;;;;5058642;28;20052;-72
2021/03/03 01:05:55;;;;;;;7.97;5.47;;;6.80;58.30;;;;;;5058853;28;20029;-72
2021/03/03 01:08:21;;;;;;;8.73;5.82;;;6.80;58.00;;;;;;5058695;28;20052;-72
2021/03/03 01:10:46;;;;;;;9.48;5.45;;;6.90;57.60;;;;;;5058945;28;20021;-72
2021/03/03 01:13:13;;;;;;;8.85;5.28;;;6.80;57.80;;;;;;5058486;28;20021;-72
2021/03/03 01:15:39;;;;;;;7.95;5.25;;;6.80;58.10;;;;;;5058961;28;20033;-72
2021/03/03 01:18:04;;;;;;;9.07;5.03;;;6.80;58.00;;;;;;5058380;28;20031;-72
2021/03/03 01:20:31;;;;;;;7.68;5.30;;;6.80;57.80;;;;;;5058308;28;20090;-72
2021/03/03 01:22:59;;;;;;;10.25;5.45;;;6.90;57.90;;;;;;5058667;28;20032;-72
2021/03/03 01:25:25;;;;;;;9.00;5.32;;;6.90;58.00;;;;;;5058368;28;20036;-72
2021/03/03 01:27:51;;;;;;;7.07;5.07;;;6.90;57.80;;;;;;5058563;28;20021;-72
2021/03/03 01:30:17;;;;;;;7.13;5.13;;;6.90;57.60;;;;;;5057257;28;20433;-72
2021/03/03 01:32:43;;;;;;;12.13;6.60;;;6.90;58.50;;;;;;5058463;28;20025;-72
2021/03/03 01:35:09;;;;;;;8.10;5.10;;;6.90;58.40;;;;;;5058136;28;20447;-72
2021/03/03 01:37:35;;;;;;;8.40;4.93;;;6.90;57.70;;;;;;5058078;28;20040;-72
2021/03/03 01:40:02;;;;;;;8.25;4.88;;;6.80;57.80;;;;;;5058109;28;20021;-72
2021/03/03 01:42:28;;;;;;;7.75;4.70;;;6.70;57.20;;;;;;5058486;28;20345;-72
2021/03/03 01:44:54;;;;;;;10.00;6.13;;;6.70;57.00;;;;;;5058232;28;20017;-72
2021/03/03 01:47:19;;;;;;;7.70;5.47;;;6.60;57.20;;;;;;5058280;28;20044;-72
2021/03/03 01:49:45;;;;;;;7.90;5.13;;;6.70;57.90;;;;;;5057954;28;20044;-72
2021/03/03 01:52:12;;;;;;;7.63;4.78;;;6.70;58.10;;;;;;5056693;28;20029;-72
2021/03/03 01:54:38;;;;;;;6.85;4.32;;;6.70;58.20;;;;;;5057793;28;20021;-72
2021/03/03 01:57:05;;;;;;;7.00;4.90;;;6.70;58.90;;;;;;5057949;28;20031;-72
2021/03/03 01:59:30;;;;;;;7.32;4.90;;;6.70;59.10;;;;;;5057919;28;20017;-72
2021/03/03 02:01:56;;;;;;;11.60;5.53;;;6.70;58.80;;;;;;5057656;28;20424;-72
2021/03/03 02:04:22;;;;;;;9.85;5.65;;;6.60;58.00;;;;;;5057823;28;20467;-72
2021/03/03 02:07:07;;;;;;;9.63;5.00;;;6.60;58.40;;;;;;5055908;28;20028;-72
2021/03/03 02:09:51;;;;;;;10.25;5.75;;;6.50;58.60;;;;;;5057487;28;20448;-72
2021/03/03 02:12:24;;;;;;;9.82;5.75;;;6.60;58.80;;;;;;5057543;28;20045;-72
2021/03/03 02:14:55;;;;;;;7.60;4.85;;;6.50;59.30;;;;;;5057364;28;20087;-72
2021/03/03 02:17:24;;;;;;;8.45;4.75;;;6.40;59.80;;;;;;5057524;28;20033;-72
2021/03/03 02:19:51;;;;;;;9.95;5.63;;;6.30;60.40;;;;;;5057254;28;20464;-72
2021/03/03 02:22:39;;;;;;;12.40;6.68;;;6.30;60.50;;;;;;5057202;28;20025;-72
2021/03/03 02:25:28;;;;;;;9.25;6.63;;;6.20;60.50;;;;;;5057219;28;20052;-72
2021/03/03 02:27:55;;;;;;;10.00;5.45;;;6.00;60.10;;;;;;5057228;28;20056;-72
2021/03/03 02:30:22;;;;;;;11.00;5.22;;;5.90;60.10;;;;;;5057273;28;20024;-72
2021/03/03 02:32:49;;;;;;;7.53;5.63;;;5.90;59.80;;;;;;5057300;28;20025;-72
2021/03/03 02:35:16;;;;;;;10.43;6.43;;;5.80;60.30;;;;;;5057044;28;20036;-72
2021/03/03 02:37:43;;;;;;;10.05;6.68;;;5.80;60.70;;;;;;5057048;28;20100;-72
2021/03/03 02:40:10;;;;;;;13.68;6.40;;;5.70;61.10;;;;;;5056983;28;20029;-72
2021/03/03 02:42:37;;;;;;;11.70;6.47;;;5.70;60.90;;;;;;5055776;28;20070;-72
2021/03/03 02:45:16;;;;;;;9.38;6.00;;;5.70;60.60;;;;;;5057183;28;20112;-72
2021/03/03 02:47:42;;;;;;;8.13;4.43;;;5.70;59.80;;;;;;5055856;28;20025;-72
2021/03/03 02:50:10;;;;;;;6.75;4.55;;;5.90;61.60;;;;;;5057127;28;20031;-72
2021/03/03 02:52:56;;;;;;;6.13;4.40;;;6.00;60.40;;;;;;5056699;28;20040;-72
2021/03/03 02:55:23;;;;;;;9.27;4.80;;;6.00;59.00;;;;;;5056849;28;20033;-72
2021/03/03 02:57:49;;;;;;;6.75;4.20;;;6.20;58.60;;;;;;5056717;28;20048;-72
2021/03/03 03:00:33;;;;;;;5.78;4.28;;;6.30;58.90;;;;;;5056856;28;20025;-72
2021/03/03 03:03:20;;;;;;;9.95;4.70;;;6.40;59.70;;;;;;5056654;28;20020;-72
2021/03/03 03:05:55;;;;;;;8.40;5.20;;;6.40;58.60;;;;;;5056821;28;20325;-72
2021/03/03 03:08:21;;;;;;;6.25;4.82;;;6.50;57.60;;;;;;5056602;28;20021;-72
2021/03/03 03:10:48;;;;;;;9.43;5.20;;;6.60;58.30;;;;;;5056614;28;20096;-72
2021/03/03 03:13:17;;;;;;;6.47;4.35;;;6.60;56.70;;;;;;5056567;28;20016;-72
2021/03/03 03:15:45;;;;;;;8.70;4.22;;;6.60;57.60;;;;;;5056981;28;20104;-72
2021/03/03 03:18:15;;;;;;;5.68;4.07;;;6.60;58.60;;;;;;5058314;28;20037;-72
2021/03/03 03:20:42;;;;;;;7.40;3.78;;;6.40;59.80;;;;;;5061190;28;20135;-72
2021/03/03 03:23:10;;;;;;;6.45;4.20;;;6.30;60.00;;;;;;5060536;28;20302;-73
2021/03/03 03:25:38;;;;;;;9.48;3.88;;;6.20;59.50;;;;;;5060621;28;20051;-74
2021/03/03 03:28:04;;;;;;;6.25;3.50;;;6.10;59.70;;;;;;5060571;28;20079;-74
2021/03/03 03:30:30;;;;;;;7.70;4.43;;;6.20;59.50;;;;;;5060650;28;20025;-74
2021/03/03 03:32:58;;;;;;;6.55;4.13;;;6.20;59.50;;;;;;5060421;28;20021;-74
2021/03/03 03:35:25;;;;;;;6.25;4.22;;;6.10;59.70;;;;;;5060405;28;20040;-74
2021/03/03 03:37:51;;;;;;;6.50;4.00;;;6.10;59.50;;;;;;5060475;28;20025;-74
2021/03/03 03:40:17;;;;;;;6.65;4.32;;;6.10;60.40;;;;;;5060366;28;20033;-74
2021/03/03 03:42:44;;;;;;;6.10;3.70;;;6.20;59.50;;;;;;5060215;28;20029;-74
2021/03/03 03:45:12;;;;;;;6.88;3.70;;;6.30;59.80;;;;;;5060207;28;20310;-72
2021/03/03 03:47:39;;;;;;;4.57;3.15;;;6.40;59.40;;;;;;5060143;28;20036;-72
2021/03/03 03:50:06;;;;;;;4.75;3.30;;;6.40;58.90;;;;;;5060156;28;20421;-72
2021/03/03 03:52:33;;;;;;;5.72;4.00;;;6.40;59.50;;;;;;5060270;28;20025;-72
2021/03/03 03:54:59;;;;;;;7.15;4.90;;;6.30;59.20;;;;;;5060331;28;20029;-71
2021/03/03 03:57:25;;;;;;;8.77;5.32;;;6.20;59.20;;;;;;5060200;28;20462;-72
2021/03/03 03:59:50;;;;;;;9.60;5.60;;;6.10;59.70;;;;;;5060271;28;20029;-72
2021/03/03 04:02:17;;;;;;;8.70;4.68;;;6.10;58.80;;;;;;5059880;28;20056;-72
2021/03/03 04:04:42;;;;;;;13.10;6.38;;;6.10;59.20;;;;;;5059816;28;20021;-72
2021/03/03 04:07:08;;;;;;;8.70;5.53;;;6.10;59.20;;;;;;5059887;28;20343;-72
2021/03/03 04:09:34;;;;;;;10.20;6.55;;;6.20;59.40;;;;;;5059772;28;20112;-72
2021/03/03 04:12:00;;;;;;;10.30;6.15;;;6.10;59.60;;;;;;5059682;28;20017;-72
2021/03/03 04:14:26;;;;;;;10.52;6.53;;;6.10;59.90;;;;;;5059956;28;20040;-72
2021/03/03 04:16:52;;;;;;;13.48;6.55;;;6.00;60.20;;;;;;5059964;28;20040;-72
2021/03/03 04:19:18;;;;;;;11.70;5.78;;;5.90;60.70;;;;;;5058395;28;20052;-72
2021/03/03 04:21:45;;;;;;;10.98;6.20;;;5.80;61.10;;;;;;5059837;28;20352;-72
2021/03/03 04:24:11;;;;;;;9.63;6.32;;;5.70;61.20;;;;;;5059499;28;20032;-72
2021/03/03 04:26:37;;;;;;;8.52;5.82;;;5.80;60.90;;;;;;5059389;28;20029;-72
2021/03/03 04:29:03;;;;;;;7.68;5.03;;;5.80;60.50;;;;;;5058823;28;20024;-72
2021/03/03 04:31:28;;;;;;;7.72;4.65;;;5.80;60.60;;;;;;5059700;28;20029;-72
2021/03/03 04:33:54;;;;;;;6.55;4.53;;;5.80;60.40;;;;;;5059255;28;20025;-72
2021/03/03 04:36:20;;;;;;;8.77;4.50;;;6.00;59.60;;;;;;5059491;28;20060;-72
2021/03/03 04:38:45;;;;;;;9.35;3.75;;;6.20;59.20;;;;;;5059211;28;20028;-72
2021/03/03 04:41:11;;;;;;;6.50;4.35;;;6.30;59.20;;;;;;5058218;28;20036;-72
2021/03/03 04:43:37;;;;;;;7.95;4.13;;;6.40;58.20;;;;;;5058023;28;20025;-72
2021/03/03 04:46:03;;;;;;;8.80;4.38;;;6.40;57.90;;;;;;5059521;28;20104;-72
2021/03/03 04:48:28;;;;;;;5.40;3.65;;;6.50;57.90;;;;;;5059149;28;20080;-72
2021/03/03 04:50:54;;;;;;;8.43;4.93;;;6.50;58.30;;;;;;5059022;28;20417;-72
2021/03/03 04:53:21;;;;;;;6.28;4.10;;;6.50;58.00;;;;;;5058895;28;20028;-72
2021/03/03 04:55:46;;;;;;;5.85;3.83;;;6.40;59.30;;;;;;5059265;28;20036;-72
2021/03/03 04:58:12;;;;;;;5.30;3.20;;;6.30;59.90;;;;;;5058905;28;20029;-72
2021/03/03 05:00:38;;;;;;;6.65;3.70;;;6.20;60.30;;;;;;5058888;28;20029;-72
2021/03/03 05:03:04;;;;;;;7.05;3.95;;;6.10;60.40;;;;;;5058854;28;20044;-72
2021/03/03 05:05:30;;;;;;;7.20;4.25;;;6.10;59.70;;;;;;5059244;28;20382;-72
2021/03/03 05:07:56;;;;;;;8.73;4.72;;;6.00;59.80;;;;;;5058760;28;20021;-71
2021/03/03 05:10:21;;;;;;;8.32;3.72;;;6.10;59.60;;;;;;5057632;28;20056;-72
2021/03/03 05:12:48;;;;;;;10.88;4.63;;;6.30;59.40;;;;;;5058799;28;20056;-72
2021/03/03 05:15:14;;;;;;;7.25;3.80;;;6.50;58.40;;;;;;5058860;28;20025;-72
2021/03/03 05:17:40;;;;;;;7.63;3.63;;;6.80;58.20;;;;;;5058761;28;20029;-72
2021/03/03 05:20:07;;;;;;;7.10;4.05;;;6.90;58.00;;;;;;5058377;28;20114;-72
2021/03/03 05:22:33;;;;;;;7.03;3.80;;;7.00;57.10;;;;;;5058382;28;20329;-72
2021/03/03 05:24:59;;;;;;;4.70;3.60;;;7.00;57.80;;;;;;5058342;28;20029;-72
2021/03/03 05:27:24;;;;;;;6.20;3.83;;;6.90;56.90;;;;;;5058663;28;20104;-72
2021/03/03 05:29:50;;;;;;;6.05;3.70;;;6.90;57.40;;;;;;5058304;28;20353;-72
2021/03/03 05:32:16;;;;;;;5.55;3.47;;;6.80;57.80;;;;;;5058243;28;20352;-72
2021/03/03 05:34:41;;;;;;;7.05;3.30;;;6.80;57.70;;;;;;5057201;28;20155;-72
2021/03/03 05:37:07;;;;;;;5.10;3.28;;;6.80;57.80;;;;;;5058197;28;20071;-72
2021/03/03 05:39:33;;;;;;;83.55;8.63;;;6.90;56.60;;;;;;5058356;28;20465;-72
2021/03/03 05:42:01;;;;;;;3.58;2.25;;;7.10;56.50;;;;;;5057302;28;20432;-72
2021/03/03 05:44:27;;;;;;;5.97;3.33;;;7.20;56.40;;;;;;5058038;28;20029;-72
2021/03/03 05:46:56;;;;;;;6.53;3.05;;;7.30;55.80;;;;;;5058195;28;20029;-72
2021/03/03 05:49:26;;;;;;;4.70;2.97;;;7.40;54.70;;;;;;5056883;28;20044;-72
2021/03/03 05:51:54;;;;;;;7.68;3.22;;;7.50;55.10;;;;;;5057854;28;20024;-72
2021/03/03 05:54:21;;;;;;;5.13;2.65;;;7.50;54.80;;;;;;5057791;28;20025;-72
2021/03/03 05:56:47;;;;;;;4.22;2.70;;;7.50;55.10;;;;;;5057769;28;20021;-72
2021/03/03 05:59:15;;;;;;;7.35;3.88;;;7.50;55.30;;;;;;5058315;28;20305;-72
2021/03/03 06:01:44;;;;;;;9.25;6.35;;;7.40;55.30;;;;;;5057622;28;20150;-72
2021/03/03 06:04:11;;;;;;;5.13;3.15;;;7.20;56.20;;;;;;5057564;28;20032;-72
2021/03/03 06:06:46;;;;;;;8.00;3.90;;;7.10;57.40;;;;;;5057667;28;20036;-72
2021/03/03 06:09:12;;;;;;;8.32;4.55;;;6.90;57.90;;;;;;5057797;28;20019;-72
2021/03/03 06:11:38;;;;;;;10.45;5.97;;;6.80;58.50;;;;;;5057713;28;20100;-72
2021/03/03 06:14:05;;;;;;;16.10;10.50;;;6.70;58.70;;;;;;5057320;28;20423;-72
2021/03/03 06:16:30;;;;;;;31.98;5.32;;;6.70;59.10;;;;;;5057397;28;20037;-72
2021/03/03 06:18:57;;;;;;;7.75;3.90;;;6.80;60.30;;;;;;5057197;28;20387;-72
2021/03/03 06:21:30;;;;;;;17.15;9.30;;;6.70;61.40;;;;;;5057351;28;20029;-72
2021/03/03 06:24:09;;;;;;;18.63;9.63;;;6.70;60.60;;;;;;5057237;28;20029;-72
2021/03/03 06:26:36;;;;;;;18.88;10.65;;;6.80;61.00;;;;;;5057462;28;20048;-72
2021/03/03 06:29:12;;;;;;;17.67;11.57;;;6.80;61.30;;;;;;5057251;28;20065;-72
2021/03/03 06:31:38;;;;;;;19.08;11.70;;;6.90;61.90;;;;;;5057215;28;20364;-72
2021/03/03 06:34:14;;;;;;;19.55;12.50;;;6.90;60.90;;;;;;5057336;28;20017;-72
2021/03/03 06:36:42;;;;;;;21.95;11.43;;;7.00;62.30;;;;;;5057322;28;20040;-72
2021/03/03 06:39:18;;;;;;;18.60;11.32;;;7.10;61.40;;;;;;5057280;28;20386;-72
2021/03/03 06:41:43;;;;;;;17.17;11.57;;;7.10;60.00;;;;;;5056945;28;20445;-72
2021/03/03 06:44:09;;;;;;;16.67;11.48;;;7.20;60.70;;;;;;5057053;28;20033;-72
2021/03/03 06:46:35;;;;;;;17.23;11.00;;;7.20;61.00;;;;;;5056856;28;20032;-72
2021/03/03 06:49:01;;;;;;;17.05;9.95;;;7.30;61.30;;;;;;5056896;28;20344;-72
2021/03/03 06:51:33;;;;;;;19.25;10.40;;;7.40;59.10;;;;;;5057075;28;20032;-72
2021/03/03 06:54:03;;;;;;;15.80;10.40;;;7.60;58.80;;;;;;5056508;28;20028;-72
2021/03/03 06:56:43;;;;;;;16.45;11.15;;;7.60;59.20;;;;;;5056854;28;20094;-72
2021/03/03 06:59:30;;;;;;;17.45;9.80;;;7.70;58.70;;;;;;5057053;28;20028;-72
2021/03/03 07:02:00;;;;;;;16.83;10.55;;;7.90;58.70;;;;;;5056794;28;20116;-72
2021/03/03 07:04:36;;;;;;;17.02;9.70;;;8.00;58.10;;;;;;5056734;28;20025;-72
2021/03/03 07:07:15;;;;;;;17.38;10.40;;;8.00;59.20;;;;;;5056933;28;20017;-72
2021/03/03 07:09:41;;;;;;;20.27;11.30;;;8.00;59.30;;;;;;5056804;28;20079;-72
2021/03/03 07:12:14;;;;;;;15.27;9.90;;;8.10;57.50;;;;;;5056527;28;20317;-72
2021/03/03 07:14:42;;;;;;;15.50;9.90;;;8.10;58.40;;;;;;5056781;28;20033;-72
2021/03/03 07:17:09;;;;;;;18.00;10.95;;;8.20;58.20;;;;;;5056823;28;20021;-72
2021/03/03 07:19:38;;;;;;;15.77;10.73;;;8.40;58.10;;;;;;5056346;28;20483;-72
2021/03/03 07:22:18;;;;;;;16.33;10.35;;;8.60;57.90;;;;;;5056399;28;20021;-72
2021/03/03 07:24:45;;;;;;;17.88;10.65;;;8.70;57.80;;;;;;5056619;28;20025;-72
2021/03/03 07:27:11;;;;;;;17.73;10.07;;;8.80;58.00;;;;;;5056767;28;20337;-72
2021/03/03 07:29:37;;;;;;;15.18;11.10;;;8.90;56.70;;;;;;5056402;28;20091;-72
2021/03/03 07:32:04;;;;;;;14.57;10.57;;;8.90;56.40;;;;;;5056359;28;20021;-72
2021/03/03 07:34:30;;;;;;;16.50;11.10;;;8.90;55.90;;;;;;5056455;28;20025;-72
2021/03/03 07:36:57;;;;;;;23.35;11.02;;;8.90;56.80;;;;;;5056608;28;20104;-72
2021/03/03 07:39:25;;;;;;;19.30;11.02;;;8.90;56.90;;;;;;5056325;28;20025;-72
2021/03/03 07:41:50;;;;;;;15.70;11.18;;;8.90;55.80;;;;;;5056347;28;20436;-72
2021/03/03 07:44:19;;;;;;;14.80;10.40;;;8.90;55.90;;;;;;5056165;28;20029;-72
2021/03/03 07:46:48;;;;;;;18.55;9.30;;;8.90;57.10;;;;;;5056226;28;20383;-72
2021/03/03 07:49:20;;;;;;;14.82;8.35;;;9.00;57.90;;;;;;5055175;28;20029;-72
2021/03/03 07:51:45;;;;;;;15.65;9.57;;;9.10;56.00;;;;;;5056296;28;20052;-72
2021/03/03 07:54:12;;;;;;;17.13;10.75;;;9.20;57.30;;;;;;5056264;28;20056;-72
2021/03/03 07:56:39;;;;;;;16.30;10.48;;;9.30;56.00;;;;;;5056740;28;20031;-72
2021/03/03 07:59:09;;;;;;;16.70;9.93;;;9.40;56.90;;;;;;5056167;28;20110;-72
2021/03/03 08:01:35;;;;;;;15.40;9.68;;;9.50;56.30;;;;;;5056152;28;20021;-72
2021/03/03 08:04:02;;;;;;;17.90;10.23;;;9.60;57.00;;;;;;5056083;28;20036;-72
2021/03/03 08:06:36;;;;;;;16.50;10.50;;;9.60;56.20;;;;;;5059984;28;20099;-72
2021/03/03 08:09:12;;;;;;;19.70;10.60;;;9.80;55.90;;;;;;5060058;28;20298;-72
2021/03/03 08:12:00;;;;;;;17.65;9.75;;;9.80;55.70;;;;;;5060089;28;20024;-72
2021/03/03 08:14:30;;;;;;;15.50;10.32;;;9.80;56.00;;;;;;5059772;28;20476;-72
2021/03/03 08:16:58;;;;;;;17.30;9.35;;;9.70;57.60;;;;;;5059966;28;20037;-72
2021/03/03 08:19:47;;;;;;;15.63;10.00;;;9.70;57.80;;;;;;5059438;28;20056;-72
2021/03/03 08:22:12;;;;;;;15.57;9.85;;;9.90;57.50;;;;;;5059349;28;20025;-72
2021/03/03 08:24:39;;;;;;;17.65;10.23;;;10.00;57.00;;;;;;5059549;28;20021;-72
2021/03/03 08:27:32;;;;;;;18.75;10.00;;;10.20;57.10;;;;;;5059552;28;20025;-72
2021/03/03 08:30:11;;;;;;;14.77;10.00;;;10.60;55.20;;;;;;5059677;28;20029;-72
2021/03/03 08:32:37;;;;;;;15.60;10.07;;;11.10;54.60;;;;;;5059344;28;20025;-72
2021/03/03 08:35:03;;;;;;;16.52;10.25;;;11.70;52.70;;;;;;5059306;28;20070;-72
2021/03/03 08:37:31;;;;;;;15.48;10.27;;;12.80;50.60;;;;;;5059371;28;20028;-72
2021/03/03 08:39:57;;;;;;;19.33;11.02;;;13.80;48.20;;;;;;5059325;28;20033;-72
2021/03/03 08:42:29;;;;;;;15.43;11.65;;;14.60;46.80;;;;;;5059298;28;20025;-72
2021/03/03 08:44:59;;;;;;;13.63;10.65;;;15.40;45.00;;;;;;5059325;28;20037;-72
2021/03/03 08:47:47;;;;;;;16.63;11.27;;;16.00;44.50;;;;;;5059353;28;20432;-72
2021/03/03 08:50:37;;;;;;;16.10;10.93;;;16.60;43.60;;;;;;5059062;28;20413;-72
2021/03/03 08:53:26;;;;;;;14.65;10.85;;;17.20;42.70;;;;;;5058645;28;20098;-72
2021/03/03 08:55:53;;;;;;;14.65;11.13;;;17.30;41.80;;;;;;5059048;28;20025;-75
2021/03/03 08:58:39;;;;;;;16.33;10.38;;;17.30;42.40;;;;;;5058936;28;20032;-74
2021/03/03 09:01:04;;;;;;;12.52;10.52;;;17.70;41.90;;;;;;5058636;28;20037;-75
2021/03/03 09:03:30;;;;;;;14.50;11.05;;;17.90;43.00;;;;;;5058774;28;20017;-75
2021/03/03 09:05:57;;;;;;;12.75;10.48;;;18.00;41.50;;;;;;5057665;28;20021;-72
2021/03/03 09:08:24;;;;;;;13.70;11.10;;;18.30;40.50;;;;;;5058760;28;20413;-72
2021/03/03 09:10:51;;;;;;;13.95;10.85;;;18.50;40.40;;;;;;5058668;28;20025;-72
2021/03/03 09:13:26;;;;;;;13.00;9.93;;;18.60;40.30;;;;;;5058871;28;20297;-72
2021/03/03 09:16:05;;;;;;;;;;;18.90;40.80;;;;;;5058888;28;20049;-72
2021/03/03 09:18:32;;;;;;;14.75;10.70;;;19.00;40.50;;;;;;5058379;28;19923;-72
2021/03/03 09:21:10;;;;;;;13.70;11.52;;;19.10;40.60;;;;;;5058497;28;20029;-72
2021/03/03 09:23:37;;;;;;;14.25;10.35;;;18.90;41.10;;;;;;5058958;28;20033;-72
2021/03/03 09:26:19;;;;;;;17.15;11.30;;;19.00;40.90;;;;;;5058689;28;20024;-72
2021/03/03 09:28:45;;;;;;;17.65;11.10;;;19.00;41.50;;;;;;5058415;28;20017;-72
2021/03/03 09:31:30;;;;;;;15.93;11.55;;;19.30;40.20;;;;;;5058410;28;20317;-72
2021/03/03 09:33:56;;;;;;;15.38;11.48;;;19.30;40.30;;;;;;5058326;28;20025;-72
2021/03/03 09:36:23;;;;;;;21.75;12.15;;;19.40;40.40;;;;;;5058653;28;20075;-72
2021/03/03 09:38:57;;;;;;;14.15;11.23;;;19.40;39.90;;;;;;5058191;28;20115;-72
2021/03/03 09:41:23;;;;;;;18.08;11.95;;;19.20;40.60;;;;;;5058159;28;20428;-72
2021/03/03 09:44:07;;;;;;;16.10;11.52;;;19.20;40.10;;;;;;5057984;28;20067;-72
2021/03/03 09:46:55;;;;;;;18.63;12.00;;;19.20;40.30;;;;;;5056900;28;20033;-72
2021/03/03 09:49:31;;;;;;;14.48;11.40;;;19.20;40.80;;;;;;5058001;28;20029;-72
2021/03/03 09:51:58;;;;;;;14.75;10.75;;;19.30;40.10;;;;;;5057951;28;20352;-72
2021/03/03 09:54:42;;;;;;;14.60;10.65;;;19.20;40.00;;;;;;5057837;28;20052;-72
2021/03/03 09:57:13;;;;;;;21.08;11.98;;;19.40;40.10;;;;;;5058064;28;20367;-72
2021/03/03 09:59:43;;;;;;;16.30;11.70;;;19.80;39.80;;;;;;5057788;28;20233;-72
2021/03/03 10:02:15;;;;;;;16.90;10.90;;;19.80;40.10;;;;;;5057913;28;20036;-72
2021/03/03 10:04:42;;;;;;;14.38;11.32;;;19.70;38.80;;;;;;5057625;28;20025;-72
2021/03/03 10:07:10;;;;;;;22.13;11.63;;;20.10;41.00;;;;;;5057908;28;20033;-72
2021/03/03 10:09:41;;;;;;;16.95;11.35;;;20.20;40.90;;;;;;5057579;28;20313;-72
2021/03/03 10:12:12;;;;;;;17.33;12.70;;;20.30;39.90;;;;;;5047645;28;20022;-72
2021/03/03 10:14:56;;;;;;;16.35;10.98;;;20.30;38.90;;;;;;5049149;28;20033;-72
2021/03/03 10:17:42;;;;;;;15.88;11.82;;;20.90;38.30;;;;;;5037482;28;20120;-72
2021/03/03 10:20:31;;;;;;;14.95;11.23;;;21.00;36.90;;;;;;5037295;28;20041;-72
2021/03/03 10:23:19;;;;;;;16.30;11.85;;;20.60;38.10;;;;;;5039577;28;20393;-73
2021/03/03 10:25:47;;;;;;;18.20;12.00;;;20.30;39.40;;;;;;5037048;28;20033;-72
2021/03/03 10:28:15;;;;;;;17.23;12.00;;;20.00;39.30;;;;;;5036673;28;20033;-72
2021/03/03 10:30:46;;;;;;;16.80;12.63;;;19.90;38.80;;;;;;5037442;28;20033;-72
2021/03/03 10:33:27;;;;;;;15.35;12.60;;;19.90;39.00;;;;;;5037454;28;20082;-72
2021/03/03 10:35:58;;;;;;;16.30;12.75;;;20.10;38.40;;;;;;5037467;28;20329;-72
2021/03/03 10:38:25;;;;;;;15.98;11.88;;;20.40;39.10;;;;;;5037195;28;20425;-72
2021/03/03 10:40:53;;;;;;;18.27;12.65;;;20.70;38.80;;;;;;5037121;28;20148;-72
2021/03/03 10:43:22;;;;;;;19.05;13.25;;;20.80;38.00;;;;;;5036981;28;20440;-72
2021/03/03 10:46:07;;;;;;;18.52;12.73;;;20.70;37.80;;;;;;5036915;28;20025;-72
2021/03/03 10:48:32;;;;;;;17.77;12.82;;;20.80;36.70;;;;;;5037033;28;20029;-72
2021/03/03 10:51:01;;;;;;;18.45;13.75;;;21.00;38.80;;;;;;5036948;28;20029;-72
2021/03/03 10:53:49;;;;;;;16.48;13.40;;;21.00;37.90;;;;;;5036857;28;20018;-72
2021/03/03 10:56:28;;;;;;;16.67;12.85;;;21.00;39.10;;;;;;5037484;28;20040;-73
2021/03/03 10:58:58;;;;;;;17.63;12.27;;;21.10;37.30;;;;;;5036793;28;20076;-72
2021/03/03 11:01:45;;;;;;;21.63;13.10;;;20.70;39.40;;;;;;5036825;28;20079;-72
2021/03/03 11:04:11;;;;;;;19.00;13.30;;;20.10;38.70;;;;;;5036820;28;20028;-72
2021/03/03 11:06:37;;;;;;;17.40;13.00;;;19.70;38.10;;;;;;5036735;28;20053;-72
2021/03/03 11:09:09;;;;;;;17.50;12.93;;;19.70;41.70;;;;;;5036982;28;20036;-72
2021/03/03 11:11:49;;;;;;;16.23;11.15;;;19.50;38.90;;;;;;5037243;28;20025;-72
2021/03/03 11:14:19;;;;;;;14.38;11.07;;;19.50;38.90;;;;;;5036603;28;20104;-72
2021/03/03 11:16:49;;;;;;;19.42;11.48;;;19.50;39.00;;;;;;5036924;28;20033;-72
2021/03/03 11:19:16;;;;;;;20.17;12.23;;;19.50;40.10;;;;;;5036603;28;20442;-72
2021/03/03 11:21:42;;;;;;;16.60;12.18;;;19.60;41.70;;;;;;5036595;28;20044;-72
2021/03/03 11:24:09;;;;;;;21.02;12.55;;;19.40;42.40;;;;;;5036979;28;20075;-72
2021/03/03 11:26:39;;;;;;;15.65;12.15;;;19.30;41.80;;;;;;5036791;28;20116;-72
2021/03/03 11:29:04;;;;;;;15.70;12.05;;;19.40;42.80;;;;;;5036836;28;20311;-72
2021/03/03 11:31:31;;;;;;;20.58;12.77;;;19.40;43.00;;;;;;5036596;28;20022;-72
2021/03/03 11:33:57;;;;;;;18.67;12.57;;;19.10;41.80;;;;;;5036412;28;20022;-72
2021/03/03 11:36:23;;;;;;;19.50;12.93;;;19.00;42.00;;;;;;5036711;28;20036;-72
2021/03/03 11:38:49;;;;;;;18.95;12.30;;;18.70;43.70;;;;;;5036428;28;20030;-72
2021/03/03 11:41:15;;;;;;;17.95;13.98;;;18.60;44.10;;;;;;5040090;28;20026;-72
2021/03/03 11:43:41;;;;;;;21.02;14.65;;;18.30;43.40;;;;;;5040306;28;20031;-72
2021/03/03 11:46:07;;;;;;;18.17;13.23;;;18.00;45.60;;;;;;5040778;28;20034;-72
2021/03/03 11:48:34;;;;;;;17.17;12.98;;;17.90;44.70;;;;;;5040325;28;20067;-72
2021/03/03 11:50:59;;;;;;;16.88;13.55;;;17.70;45.80;;;;;;5040214;28;20037;-72
2021/03/03 11:53:25;;;;;;;20.92;14.40;;;17.50;45.50;;;;;;5040202;28;20028;-72
2021/03/03 11:55:51;;;;;;;19.45;13.88;;;17.20;44.90;;;;;;5040212;28;20036;-72
2021/03/03 11:58:17;;;;;;;17.70;14.05;;;17.00;46.10;;;;;;5040209;28;20425;-72
2021/03/03 12:00:42;;;;;;;20.48;14.23;;;16.80;47.90;;;;;;5040346;28;20029;-72
2021/03/03 12:03:08;;;;;;;18.88;14.68;;;16.80;46.20;;;;;;5040126;28;20037;-72
2021/03/03 12:05:34;;;;;;;21.27;14.68;;;16.60;45.70;;;;;;5040253;28;20104;-72
2021/03/03 12:08:00;;;;;;;25.00;13.95;;;16.30;46.80;;;;;;5040227;28;20325;-72
2021/03/03 12:10:26;;;;;;;20.88;14.65;;;16.40;47.40;;;;;;5040005;28;20024;-72
2021/03/03 12:12:52;;;;;;;22.48;14.40;;;16.50;46.50;;;;;;5039925;28;20017;-72
2021/03/03 12:15:18;;;;;;;20.67;15.10;;;16.60;48.50;;;;;;5039752;28;20109;-72
2021/03/03 12:17:44;;;;;;;19.13;14.82;;;16.50;46.50;;;;;;5039761;28;20041;-72
2021/03/03 12:20:10;;;;;;;21.55;15.35;;;16.40;47.50;;;;;;5039490;28;20049;-72
2021/03/03 12:22:36;;;;;;;21.17;16.17;;;16.30;47.10;;;;;;5039601;28;20068;-72
2021/03/03 12:25:04;;;;;;;25.05;16.27;;;16.10;46.70;;;;;;5039594;28;20056;-72
2021/03/03 12:27:30;;;;;;;25.40;16.02;;;15.80;48.20;;;;;;5039763;28;20022;-72
2021/03/03 12:29:56;;;;;;;20.25;14.63;;;15.60;48.50;;;;;;5039843;28;20029;-72
2021/03/03 12:32:22;;;;;;;21.38;16.08;;;15.50;47.10;;;;;;5039468;28;20022;-72
2021/03/03 12:34:47;;;;;;;20.45;14.90;;;15.60;49.30;;;;;;5039508;28;20021;-72
2021/03/03 12:37:13;;;;;;;26.13;16.00;;;15.80;48.50;;;;;;5039734;28;20041;-72
2021/03/03 12:39:39;;;;;;;24.85;16.63;;;15.80;48.80;;;;;;5039387;28;20371;-72
2021/03/03 12:42:04;;;;;;;22.10;16.30;;;15.90;48.50;;;;;;5039509;28;20033;-72
2021/03/03 12:44:30;;;;;;;21.77;16.67;;;16.10;50.60;;;;;;5039355;28;20306;-72
2021/03/03 12:46:56;;;;;;;22.95;16.85;;;16.20;48.30;;;;;;5039210;28;20029;-72
2021/03/03 12:49:22;;;;;;;22.63;15.95;;;16.20;46.60;;;;;;5039275;28;20032;-72
2021/03/03 12:51:48;;;;;;;23.05;16.30;;;16.40;47.30;;;;;;5038622;28;20021;-72